Time;durP1;ratioP1;P1;durP2;ratioP2;P2;SDS_P1;SDS_P2;PMS_P1;PMS_P2;Temp;Humidity;BMP_temperature;BMP_pressure;BME280_temperature;BME280_humidity;BME280_pressure;Samples;Min_cycle;Max_cycle;Signal;HPM_P1;HPM_P2
2023/04/23 00:00:41;;;;;;;5.93;2.53;;;;;;;14.59;43.30;99350.44;4492226;31;33093;-58
2023/04/23 00:03:11;;;;;;;3.47;1.98;;;;;;;14.55;43.39;99348.22;4492116;31;33607;-58
2023/04/23 00:05:40;;;;;;;3.00;2.28;;;;;;;14.61;42.87;99345.78;4481198;31;34000;-58
2023/04/23 00:08:09;;;;;;;4.03;2.12;;;;;;;14.50;43.79;99342.38;4492988;31;34696;-58
2023/04/23 00:10:37;;;;;;;3.33;2.55;;;;;;;14.27;44.21;99341.94;4491551;31;33258;-58
2023/04/23 00:13:05;;;;;;;7.90;2.22;;;;;;;14.76;43.03;99340.69;4492780;31;31859;-58
2023/04/23 00:15:32;;;;;;;2.28;1.62;;;;;;;14.81;42.84;99346.50;4491900;31;34027;-58
2023/04/23 00:18:00;;;;;;;1.87;1.75;;;;;;;14.66;42.82;99348.00;4491450;31;33613;-58
2023/04/23 00:20:27;;;;;;;3.33;2.45;;;;;;;14.60;42.69;99340.50;4487904;31;31539;-57
2023/04/23 00:22:55;;;;;;;4.32;2.60;;;;;;;14.55;43.02;99342.84;4483672;31;32753;-58
2023/04/23 00:25:23;;;;;;;2.17;1.85;;;;;;;14.75;42.53;99340.88;4493241;31;33856;-58
2023/04/23 00:27:51;;;;;;;3.55;2.42;;;;;;;14.58;43.05;99338.00;4493231;31;34735;-58
2023/04/23 00:30:18;;;;;;;2.67;2.25;;;;;;;14.49;43.26;99330.78;4490460;31;32202;-58
2023/04/23 00:32:46;;;;;;;5.53;3.30;;;;;;;14.15;43.75;99342.09;4493141;31;35471;-59
2023/04/23 00:35:14;;;;;;;2.65;2.28;;;;;;;14.16;43.84;99334.91;4490803;31;34050;-58
2023/04/23 00:37:41;;;;;;;3.60;2.25;;;;;;;14.25;43.54;99331.28;4488419;31;35149;-57
2023/04/23 00:40:10;;;;;;;3.05;2.75;;;;;;;14.29;43.37;99332.72;4493734;31;33291;-57
2023/04/23 00:42:38;;;;;;;2.83;2.22;;;;;;;13.99;44.14;99325.72;4486785;31;31928;-58
2023/04/23 00:45:07;;;;;;;3.15;2.00;;;;;;;14.08;43.97;99326.69;4488795;31;34385;-58
2023/04/23 00:47:35;;;;;;;3.53;2.58;;;;;;;14.01;44.04;99323.75;4493448;31;33257;-57
2023/04/23 00:50:03;;;;;;;5.60;3.20;;;;;;;14.09;43.87;99333.78;4488587;31;33139;-58
2023/04/23 00:52:30;;;;;;;7.60;3.03;;;;;;;14.05;44.40;99332.38;4489431;31;34234;-58
2023/04/23 00:54:58;;;;;;;7.90;2.15;;;;;;;14.05;44.17;99325.16;4486456;31;34088;-57
2023/04/23 00:57:25;;;;;;;3.40;2.28;;;;;;;14.33;43.19;99330.56;4493927;31;33608;-58
2023/04/23 00:59:55;;;;;;;2.25;1.62;;;;;;;14.36;42.83;99323.03;4488647;31;34667;-58
2023/04/23 01:02:25;;;;;;;4.15;3.03;;;;;;;14.34;42.93;99332.25;4483384;31;34765;-58
2023/04/23 01:04:54;;;;;;;5.37;2.62;;;;;;;14.30;42.91;99326.31;4490616;31;32766;-58
2023/04/23 01:07:22;;;;;;;3.83;2.33;;;;;;;14.20;43.14;99334.44;4488590;31;34160;-58
2023/04/23 01:09:49;;;;;;;4.57;3.00;;;;;;;13.98;43.53;99321.34;4488399;31;32236;-59
2023/04/23 01:12:17;;;;;;;4.28;2.83;;;;;;;13.89;43.78;99325.75;4490869;31;33951;-59
2023/04/23 01:14:45;;;;;;;3.80;3.00;;;;;;;13.88;43.82;99329.47;4490929;31;34962;-60
2023/04/23 01:17:13;;;;;;;16.80;3.08;;;;;;;13.94;43.61;99325.34;4483526;31;33854;-61
2023/04/23 01:19:40;;;;;;;3.72;1.65;;;;;;;13.86;43.94;99323.37;4487797;31;32901;-60
2023/04/23 01:22:10;;;;;;;2.25;1.90;;;;;;;13.84;43.86;99316.47;4484703;31;33709;-60
2023/04/23 01:24:38;;;;;;;4.85;3.20;;;;;;;13.78;43.94;99325.09;4486879;31;33791;-60
2023/04/23 01:27:06;;;;;;;8.95;3.92;;;;;;;13.81;43.80;99322.13;4487347;31;34297;-59
2023/04/23 01:29:34;;;;;;;3.45;2.72;;;;;;;13.79;43.82;99318.72;4482625;31;33632;-59
2023/04/23 01:32:02;;;;;;;7.40;3.75;;;;;;;13.73;43.82;99321.00;4483544;31;33640;-59
2023/04/23 01:34:30;;;;;;;2.60;2.37;;;;;;;13.71;44.05;99322.16;4492070;31;33613;-59
2023/04/23 01:36:58;;;;;;;3.97;2.53;;;;;;;13.26;45.26;99320.94;4479308;31;33946;-58
2023/04/23 01:39:25;;;;;;;9.63;4.60;;;;;;;13.43;44.59;99313.13;4487318;31;33681;-58
2023/04/23 01:41:53;;;;;;;4.32;2.60;;;;;;;12.93;45.70;99318.62;4492906;31;33847;-58
2023/04/23 01:44:21;;;;;;;5.15;3.12;;;;;;;13.09;45.54;99316.22;4491977;31;33752;-58
2023/04/23 01:46:48;;;;;;;6.68;3.75;;;;;;;13.04;45.80;99318.50;4488835;31;34053;-58
2023/04/23 01:49:16;;;;;;;7.30;3.47;;;;;;;12.99;45.92;99318.91;4484947;31;33248;-59
2023/04/23 01:51:43;;;;;;;6.45;2.00;;;;;;;12.95;46.01;99316.66;4494768;31;34941;-58
2023/04/23 01:54:11;;;;;;;3.33;1.95;;;;;;;13.32;45.24;99319.50;4490836;31;33824;-58
2023/04/23 01:56:39;;;;;;;2.40;1.12;;;;;;;13.15;45.51;99314.81;4493048;31;33553;-58
2023/04/23 01:59:06;;;;;;;2.05;1.62;;;;;;;13.26;45.04;99309.34;4479665;31;33676;-58
2023/04/23 02:01:44;;;;;;;2.60;2.03;;;;;;;13.42;44.67;99306.06;4492804;31;35034;-58
2023/04/23 02:04:13;;;;;;;2.17;1.48;;;;;;;13.44;44.51;99312.12;4492779;31;33919;-58
2023/04/23 02:06:42;;;;;;;2.60;2.40;;;;;;;13.40;44.57;99303.50;4491432;31;33771;-59
2023/04/23 02:09:10;;;;;;;6.37;2.53;;;;;;;13.23;45.32;99302.38;4486449;31;33072;-59
2023/04/23 02:11:38;;;;;;;4.18;2.25;;;;;;;13.37;45.23;99298.41;4486641;31;33835;-59
2023/04/23 02:14:06;;;;;;;3.33;1.85;;;;;;;13.63;44.04;99304.03;4493080;31;33824;-58
2023/04/23 02:16:34;;;;;;;2.20;1.77;;;;;;;13.56;44.36;99300.22;4482011;31;35078;-58
2023/04/23 02:19:01;;;;;;;2.90;2.70;;;;;;;13.64;44.39;99302.19;4482957;31;33346;-58
2023/04/23 02:21:29;;;;;;;7.15;2.20;;;;;;;13.56;44.02;99302.91;4486713;31;32702;-58
2023/04/23 02:23:56;;;;;;;4.75;2.95;;;;;;;13.54;44.13;99299.53;4488117;31;37047;-58
2023/04/23 02:26:24;;;;;;;4.57;3.00;;;;;;;13.39;44.50;99298.28;4493750;31;33738;-58
2023/04/23 02:28:52;;;;;;;4.93;3.17;;;;;;;13.12;44.93;99298.97;4493696;31;34108;-58
2023/04/23 02:31:19;;;;;;;1.85;1.15;;;;;;;13.31;44.50;99295.47;4490720;31;34992;-60
2023/04/23 02:33:47;;;;;;;2.72;1.95;;;;;;;13.11;45.25;99300.81;4490559;31;34121;-59
2023/04/23 02:36:15;;;;;;;3.30;2.05;;;;;;;13.04;45.06;99291.63;4484668;31;33472;-59
2023/04/23 02:38:44;;;;;;;5.82;2.30;;;;;;;13.07;45.10;99294.03;4489233;31;33434;-59
2023/04/23 02:41:11;;;;;;;3.25;2.45;;;;;;;13.09;45.00;99297.41;4483530;31;34536;-59
2023/04/23 02:43:39;;;;;;;3.10;2.20;;;;;;;13.15;44.89;99294.16;4493013;31;35277;-60
2023/04/23 02:46:07;;;;;;;4.80;3.05;;;;;;;12.93;45.38;99289.91;4489030;31;32523;-60
2023/04/23 02:48:38;;;;;;;4.18;2.08;;;;;;;12.85;45.74;99289.78;4483737;31;33324;-60
2023/04/23 02:51:07;;;;;;;5.90;3.30;;;;;;;12.86;45.84;99286.09;4493384;31;33529;-60
2023/04/23 02:53:35;;;;;;;2.28;1.50;;;;;;;12.83;45.93;99294.44;4495910;31;33814;-59
2023/04/23 02:56:03;;;;;;;2.60;1.90;;;;;;;12.78;45.94;99285.97;4490679;31;33931;-60
2023/04/23 02:58:30;;;;;;;3.97;3.12;;;;;;;12.95;45.81;99284.41;4489787;31;33102;-59
2023/04/23 03:00:59;;;;;;;1.87;1.48;;;;;;;13.09;45.10;99283.13;4490345;31;34909;-59
2023/04/23 03:03:30;;;;;;;10.88;3.60;;;;;;;13.07;45.07;99277.91;4489812;31;35355;-59
2023/04/23 03:06:00;;;;;;;3.20;2.45;;;;;;;13.10;45.05;99280.31;4490740;31;33613;-59
2023/04/23 03:08:27;;;;;;;4.62;2.87;;;;;;;13.14;44.98;99280.88;4480120;31;33344;-59
2023/04/23 03:10:55;;;;;;;1.37;1.27;;;;;;;13.09;44.71;99280.44;4495186;31;33882;-58
2023/04/23 03:13:23;;;;;;;5.32;3.12;;;;;;;13.05;44.87;99285.25;4493441;31;33797;-59
2023/04/23 03:15:52;;;;;;;1.73;1.55;;;;;;;13.09;44.92;99278.59;4485564;31;33582;-59
2023/04/23 03:18:20;;;;;;;5.62;1.75;;;;;;;12.97;44.75;99277.91;4490077;31;34763;-59
2023/04/23 03:20:48;;;;;;;5.00;2.53;;;;;;;13.02;44.90;99285.53;4489775;31;34896;-58
2023/04/23 03:23:15;;;;;;;5.32;3.15;;;;;;;12.98;44.92;99284.97;4489828;31;35362;-59
2023/04/23 03:25:43;;;;;;;2.47;2.28;;;;;;;12.38;46.62;99291.38;4487234;31;33756;-58
2023/04/23 03:28:11;;;;;;;11.73;3.28;;;;;;;12.75;45.56;99284.41;4491210;31;33379;-60
2023/04/23 03:30:39;;;;;;;4.72;3.00;;;;;;;12.81;45.13;99281.16;4491860;31;34243;-59
2023/04/23 03:33:07;;;;;;;3.50;2.42;;;;;;;12.85;45.16;99286.25;4484755;31;35669;-59
2023/04/23 03:35:35;;;;;;;5.62;4.45;;;;;;;12.77;45.61;99290.47;4488784;31;33969;-59
2023/04/23 03:38:03;;;;;;;3.97;2.10;;;;;;;12.81;45.70;99283.84;4496072;31;33592;-59
2023/04/23 03:40:31;;;;;;;2.22;1.67;;;;;;;12.98;45.66;99287.66;4485777;31;34859;-59
2023/04/23 03:42:59;;;;;;;2.05;1.42;;;;;;;13.09;45.21;99286.66;4491869;31;32824;-59
2023/04/23 03:45:29;;;;;;;3.97;2.62;;;;;;;13.16;44.45;99290.50;4487008;31;33626;-59
2023/04/23 03:47:56;;;;;;;4.05;2.87;;;;;;;12.81;45.29;99289.22;4493998;31;33134;-59
2023/04/23 03:50:24;;;;;;;6.15;2.55;;;;;;;12.92;44.97;99282.00;4493117;31;33640;-59
2023/04/23 03:52:53;;;;;;;2.60;2.15;;;;;;;12.93;44.84;99283.69;4489060;31;35135;-59
2023/04/23 03:55:22;;;;;;;2.42;2.22;;;;;;;12.78;45.27;99286.81;4490073;31;33975;-59
2023/04/23 03:57:50;;;;;;;3.08;1.67;;;;;;;12.70;45.42;99297.38;4487822;31;31903;-58
2023/04/23 04:00:17;;;;;;;1.55;1.30;;;;;;;12.48;46.08;99285.03;4482974;31;34710;-58
2023/04/23 04:02:45;;;;;;;2.92;2.12;;;;;;;12.14;47.21;99292.59;4489764;31;32909;-58
2023/04/23 04:05:13;;;;;;;13.55;2.50;;;;;;;11.73;48.11;99296.19;4490394;31;34091;-58
2023/04/23 04:07:41;;;;;;;3.45;3.15;;;;;;;12.32;46.88;99301.66;4491732;31;33140;-58
2023/04/23 04:10:09;;;;;;;4.05;3.65;;;;;;;12.48;47.06;99292.25;4486015;31;35002;-58
2023/04/23 04:12:37;;;;;;;6.78;2.75;;;;;;;12.66;46.58;99293.28;4488844;31;33646;-59
2023/04/23 04:15:09;;;;;;;7.03;1.45;;;;;;;13.04;45.55;99294.31;4493898;31;32164;-58
2023/04/23 04:17:36;;;;;;;3.35;2.25;;;;;;;13.09;45.10;99302.78;4490281;31;33080;-58
2023/04/23 04:20:07;;;;;;;2.65;1.70;;;;;;;13.07;45.23;99302.09;4492619;31;33939;-59
2023/04/23 04:22:34;;;;;;;4.70;2.58;;;;;;;13.24;44.63;99303.22;4495242;31;33347;-59
2023/04/23 04:25:04;;;;;;;3.60;2.55;;;;;;;13.35;44.37;99304.91;4485168;31;34641;-58
2023/04/23 04:27:34;;;;;;;4.57;2.47;;;;;;;13.47;44.08;99303.78;4485760;31;33415;-58
2023/04/23 04:30:04;;;;;;;2.67;1.95;;;;;;;13.42;44.32;99301.53;4492359;31;34668;-58
2023/04/23 04:32:31;;;;;;;2.03;1.48;;;;;;;13.46;44.32;99308.31;4493841;31;35154;-58
2023/04/23 04:34:59;;;;;;;2.85;1.62;;;;;;;13.58;44.15;99309.00;4485263;31;33690;-58
2023/04/23 04:37:27;;;;;;;1.02;0.93;;;;;;;13.55;44.45;99316.50;4492569;31;33355;-60
2023/04/23 04:39:54;;;;;;;9.07;1.50;;;;;;;13.88;43.82;99310.62;4493540;31;34997;-58
2023/04/23 04:42:22;;;;;;;2.42;1.70;;;;;;;14.00;43.61;99316.69;4484251;31;35684;-59
2023/04/23 04:44:50;;;;;;;1.45;1.35;;;;;;;14.02;43.61;99314.69;4486886;31;33969;-59
2023/04/23 04:47:18;;;;;;;2.08;1.75;;;;;;;14.08;43.70;99316.78;4495531;31;34404;-59
2023/04/23 04:49:45;;;;;;;12.35;2.87;;;;;;;14.22;43.49;99310.06;4495342;31;33629;-59
2023/04/23 04:52:13;;;;;;;3.03;2.33;;;;;;;14.28;43.48;99316.69;4484708;31;34190;-59
2023/04/23 04:54:40;;;;;;;4.12;2.90;;;;;;;14.31;43.25;99322.63;4488794;31;33719;-59
2023/04/23 04:57:09;;;;;;;1.27;0.98;;;;;;;14.45;43.11;99326.69;4488792;31;33152;-61
2023/04/23 04:59:37;;;;;;;5.47;3.85;;;;;;;14.47;43.33;99334.59;4491248;31;32908;-62
2023/04/23 05:02:04;;;;;;;9.55;3.28;;;;;;;14.60;43.56;99325.19;4489816;31;35855;-59
2023/04/23 05:04:32;;;;;;;4.97;3.28;;;;;;;14.75;43.41;99320.16;4485752;31;33778;-60
2023/04/23 05:07:00;;;;;;;3.33;1.98;;;;;;;14.91;43.91;99330.28;4489519;31;34288;-60
2023/04/23 05:09:27;;;;;;;2.15;1.60;;;;;;;15.25;42.72;99324.19;4486754;31;34047;-60
2023/04/23 05:11:55;;;;;;;6.97;2.50;;;;;;;15.38;41.96;99327.34;4487374;31;33859;-61
2023/04/23 05:14:25;;;;;;;2.20;1.98;;;;;;;15.44;42.68;99336.66;4491286;31;34803;-61
2023/04/23 05:16:52;;;;;;;4.32;2.65;;;;;;;15.65;42.33;99333.62;4495667;31;34482;-61
2023/04/23 05:19:20;;;;;;;3.75;2.83;;;;;;;15.93;42.20;99328.97;4491942;31;35071;-60
2023/04/23 05:21:48;;;;;;;5.20;3.33;;;;;;;15.77;42.91;99332.41;4496897;31;33836;-60
2023/04/23 05:24:15;;;;;;;4.95;2.33;;;;;;;16.41;41.77;99331.09;4490805;31;34027;-60
2023/04/23 05:26:43;;;;;;;8.60;4.50;;;;;;;17.17;40.00;99330.16;4496154;31;34250;-61
2023/04/23 05:29:13;;;;;;;9.43;3.53;;;;;;;17.84;38.53;99327.28;4498249;31;34985;-63
2023/04/23 05:31:40;;;;;;;7.28;4.55;;;;;;;18.38;36.84;99326.66;4497191;31;34802;-61
2023/04/23 05:34:08;;;;;;;5.82;4.43;;;;;;;18.46;36.26;99323.03;4493126;31;34040;-60
2023/04/23 05:36:35;;;;;;;11.05;4.22;;;;;;;18.41;36.56;99330.87;4482177;31;33451;-59
2023/04/23 05:39:03;;;;;;;7.03;4.07;;;;;;;18.24;37.34;99328.22;4491941;31;33871;-60
2023/04/23 05:41:31;;;;;;;7.60;4.00;;;;;;;18.86;36.47;99324.75;4492821;31;35110;-59
2023/04/23 05:43:58;;;;;;;9.68;4.47;;;;;;;20.28;33.43;99327.81;4489290;31;34190;-59
2023/04/23 05:46:26;;;;;;;11.20;5.03;;;;;;;20.58;31.79;99320.53;4484155;31;33193;-59
2023/04/23 05:48:54;;;;;;;17.52;4.18;;;;;;;20.27;32.42;99324.28;4487535;31;33592;-59
2023/04/23 05:51:21;;;;;;;10.43;5.45;;;;;;;20.70;31.63;99322.56;4491757;31;33994;-59
2023/04/23 05:53:49;;;;;;;7.78;4.20;;;;;;;20.52;31.82;99327.56;4492955;31;33778;-60
2023/04/23 05:56:16;;;;;;;7.25;4.90;;;;;;;19.80;33.16;99324.59;4494462;31;31621;-59
2023/04/23 05:58:45;;;;;;;6.97;4.62;;;;;;;18.97;34.22;99327.09;4484634;31;34822;-59
2023/04/23 06:01:12;;;;;;;11.15;6.00;;;;;;;18.33;35.72;99329.03;4488040;31;34879;-60
2023/04/23 06:03:44;;;;;;;6.37;4.40;;;;;;;17.64;37.04;99334.03;4484722;31;34664;-60
2023/04/23 06:06:12;;;;;;;9.65;6.00;;;;;;;18.30;36.53;99332.09;4487197;31;32261;-59
2023/04/23 06:08:40;;;;;;;7.43;5.57;;;;;;;17.86;37.03;99332.53;4499387;31;32610;-59
2023/04/23 06:11:07;;;;;;;7.60;4.95;;;;;;;16.58;38.57;99340.09;4483304;31;32973;-60
2023/04/23 06:13:39;;;;;;;8.60;4.05;;;;;;;17.33;37.75;99339.28;4496014;31;34064;-59
2023/04/23 06:16:10;;;;;;;;;;;;;;;17.03;38.82;99341.59;4485863;31;32167;-59
2023/04/23 06:18:38;;;;;;;6.25;4.68;;;;;;;16.35;40.08;99347.09;4490664;31;37827;-60
2023/04/23 06:21:05;;;;;;;6.22;4.87;;;;;;;16.92;40.04;99345.47;4495720;31;32782;-59
2023/04/23 06:23:33;;;;;;;8.18;4.10;;;;;;;17.32;38.92;99341.12;4487921;31;33869;-59
2023/04/23 06:26:00;;;;;;;8.07;3.87;;;;;;;16.85;39.05;99344.41;4492998;31;33637;-59
2023/04/23 06:28:28;;;;;;;8.88;4.80;;;;;;;17.20;39.23;99339.75;4487768;31;33604;-60
2023/04/23 06:30:59;;;;;;;5.93;3.75;;;;;;;17.59;38.53;99341.81;4489091;31;34135;-59
2023/04/23 06:33:27;;;;;;;12.40;3.87;;;;;;;17.68;38.00;99341.62;4489829;31;33628;-60
2023/04/23 06:35:54;;;;;;;5.15;3.45;;;;;;;17.69;38.08;99346.06;4492117;31;34227;-59
2023/04/23 06:38:22;;;;;;;5.45;3.92;;;;;;;17.76;37.85;99348.09;4495421;31;35047;-59
2023/04/23 06:40:50;;;;;;;8.85;3.33;;;;;;;18.13;37.10;99339.41;4492593;31;33850;-60
2023/04/23 06:43:17;;;;;;;10.98;5.80;;;;;;;18.05;37.33;99342.16;4490257;31;33979;-59
2023/04/23 06:45:46;;;;;;;5.07;3.78;;;;;;;18.56;36.87;99339.97;4490933;31;32169;-59
2023/04/23 06:48:15;;;;;;;7.22;4.45;;;;;;;18.43;37.14;99345.94;4490939;31;35037;-59
2023/04/23 06:50:43;;;;;;;7.00;4.22;;;;;;;18.66;36.52;99346.00;4487323;31;33810;-60
2023/04/23 06:53:10;;;;;;;9.45;4.62;;;;;;;18.32;37.78;99346.31;4490728;31;34931;-59
2023/04/23 06:55:38;;;;;;;10.23;4.62;;;;;;;17.87;38.24;99350.47;4497007;31;33306;-60
2023/04/23 06:58:08;;;;;;;6.45;3.47;;;;;;;18.41;37.23;99339.00;4492109;31;33712;-60
2023/04/23 07:00:36;;;;;;;6.57;4.18;;;;;;;18.67;36.58;99347.69;4486577;31;35235;-59
2023/04/23 07:03:04;;;;;;;6.07;4.10;;;;;;;18.47;36.48;99341.00;4491762;31;33697;-60
2023/04/23 07:05:32;;;;;;;9.10;5.25;;;;;;;18.77;35.85;99339.38;4497971;31;33797;-60
2023/04/23 07:07:59;;;;;;;7.85;4.20;;;;;;;18.92;36.51;99332.19;4495474;31;33652;-59
2023/04/23 07:10:27;;;;;;;5.68;3.15;;;;;;;19.07;35.33;99335.00;4491799;31;34650;-59
2023/04/23 07:12:54;;;;;;;6.00;3.45;;;;;;;19.00;34.56;99336.69;4492601;31;33877;-59
2023/04/23 07:15:22;;;;;;;9.75;3.42;;;;;;;18.63;35.56;99330.09;4500258;31;32444;-59
2023/04/23 07:17:50;;;;;;;7.65;3.97;;;;;;;19.39;34.18;99330.31;4495713;31;34668;-60
2023/04/23 07:20:17;;;;;;;6.37;3.85;;;;;;;18.63;35.56;99333.66;4499606;31;34014;-59
2023/04/23 07:22:46;;;;;;;5.97;3.92;;;;;;;19.20;34.99;99328.97;4487192;31;33872;-59
2023/04/23 07:25:13;;;;;;;4.47;3.55;;;;;;;19.78;33.65;99325.63;4496028;31;33466;-60
2023/04/23 07:27:40;;;;;;;4.87;3.28;;;;;;;19.91;32.50;99325.00;4489419;31;33523;-59
2023/04/23 07:30:09;;;;;;;11.65;5.07;;;;;;;19.79;33.76;99331.91;4492658;31;34240;-59
2023/04/23 07:32:36;;;;;;;13.32;4.97;;;;;;;19.17;34.68;99326.62;4497527;31;34592;-60
2023/04/23 07:35:04;;;;;;;7.82;4.43;;;;;;;19.84;33.37;99331.31;4495167;31;34526;-59
2023/04/23 07:37:32;;;;;;;10.95;5.90;;;;;;;19.87;34.18;99330.97;4490248;31;35020;-59
2023/04/23 07:40:01;;;;;;;11.45;5.50;;;;;;;20.31;32.61;99332.88;4499196;31;33590;-59
2023/04/23 07:42:28;;;;;;;8.90;4.82;;;;;;;20.24;32.67;99333.62;4500156;31;33532;-59
2023/04/23 07:44:56;;;;;;;12.25;5.50;;;;;;;19.89;30.86;99320.78;4490957;31;34105;-59
2023/04/23 07:47:24;;;;;;;9.63;5.43;;;;;;;20.04;31.01;99323.50;4491466;31;34683;-60
2023/04/23 07:49:51;;;;;;;6.40;3.85;;;;;;;20.12;29.97;99324.25;4486291;31;34112;-60
2023/04/23 07:52:19;;;;;;;6.35;3.78;;;;;;;20.97;29.50;99320.19;4490342;31;33814;-60
2023/04/23 07:54:46;;;;;;;5.53;3.97;;;;;;;20.73;28.65;99326.78;4497889;31;33224;-60
2023/04/23 07:57:15;;;;;;;6.12;3.55;;;;;;;21.02;29.69;99325.88;4489673;31;32642;-60
2023/04/23 07:59:42;;;;;;;5.50;3.45;;;;;;;20.97;28.62;99322.91;4493458;31;33714;-60
2023/04/23 08:02:10;;;;;;;10.50;3.58;;;;;;;20.52;29.38;99319.41;4489953;31;35212;-59
2023/04/23 08:04:38;;;;;;;6.72;3.67;;;;;;;20.85;28.81;99322.53;4487403;31;33311;-59
2023/04/23 08:07:06;;;;;;;8.30;4.50;;;;;;;21.00;28.45;99318.97;4492613;31;32785;-61
2023/04/23 08:09:33;;;;;;;6.53;4.20;;;;;;;21.75;28.32;99320.31;4491542;31;32697;-60
2023/04/23 08:12:01;;;;;;;7.10;4.15;;;;;;;21.80;27.48;99310.53;4488938;31;33966;-60
2023/04/23 08:14:29;;;;;;;6.37;3.78;;;;;;;21.51;28.32;99314.25;4486736;31;34213;-59
2023/04/23 08:16:56;;;;;;;13.15;4.53;;;;;;;21.61;27.45;99320.22;4489621;31;33603;-59
2023/04/23 08:19:24;;;;;;;12.30;6.65;;;;;;;21.98;27.88;99315.47;4497598;31;35568;-59
2023/04/23 08:21:52;;;;;;;10.52;4.28;;;;;;;22.00;27.97;99315.28;4487177;31;32973;-59
2023/04/23 08:24:20;;;;;;;8.98;5.00;;;;;;;21.74;27.96;99305.88;4493399;31;33324;-61
2023/04/23 08:26:47;;;;;;;9.25;3.15;;;;;;;21.88;27.91;99314.97;4491385;31;32631;-59
2023/04/23 08:29:15;;;;;;;6.82;4.53;;;;;;;22.23;27.26;99315.03;4491896;31;33737;-60
2023/04/23 08:31:42;;;;;;;10.05;6.30;;;;;;;22.28;26.93;99310.69;4495700;31;33954;-61
2023/04/23 08:34:10;;;;;;;11.57;4.97;;;;;;;21.78;27.71;99317.22;4482966;31;34705;-59
2023/04/23 08:36:37;;;;;;;8.18;4.47;;;;;;;21.71;27.77;99308.16;4490538;31;33740;-61
2023/04/23 08:39:05;;;;;;;10.07;4.97;;;;;;;21.93;28.75;99315.22;4492966;31;33649;-60
2023/04/23 08:41:41;;;;;;;12.88;5.60;;;;;;;22.22;27.18;99308.75;4490732;31;33912;-59
2023/04/23 08:44:16;;;;;;;8.00;5.00;;;;;;;22.01;27.72;99311.50;4487504;31;33467;-59
2023/04/23 08:46:44;;;;;;;9.98;6.78;;;;;;;22.51;27.82;99315.00;4492004;31;33924;-60
2023/04/23 08:49:17;;;;;;;9.57;6.53;;;;;;;21.83;28.33;99304.69;4497115;31;33965;-59
2023/04/23 08:51:49;;;;;;;10.43;6.97;;;;;;;21.97;28.00;99300.16;4487021;31;33873;-60
2023/04/23 08:54:36;;;;;;;7.93;4.43;;;;;;;21.99;28.01;99308.13;4478891;31;33223;-61
2023/04/23 08:57:04;;;;;;;10.25;4.70;;;;;;;21.75;28.55;99302.09;4489586;31;33806;-60
2023/04/23 08:59:32;;;;;;;10.70;6.60;;;;;;;21.84;28.60;99303.62;4486623;31;33950;-60
2023/04/23 09:02:06;;;;;;;8.23;5.40;;;;;;;22.35;27.49;99302.53;4488191;31;34895;-60
2023/04/23 09:04:37;;;;;;;9.63;4.32;;;;;;;21.89;28.52;99304.91;4481045;31;33019;-60
2023/04/23 09:07:09;;;;;;;7.85;3.83;;;;;;;22.37;27.91;99296.88;4483531;31;33909;-60
2023/04/23 09:09:38;;;;;;;9.80;5.22;;;;;;;22.78;27.80;99288.66;4486529;31;34843;-59
2023/04/23 09:12:07;;;;;;;4.43;3.05;;;;;;;22.22;27.84;99297.00;4484681;31;33750;-60
2023/04/23 09:14:35;;;;;;;11.55;6.43;;;;;;;23.18;27.31;99289.63;4484771;31;32720;-61
2023/04/23 09:17:03;;;;;;;11.20;5.55;;;;;;;22.83;26.54;99291.63;4489113;31;35200;-62
2023/04/23 09:19:31;;;;;;;6.97;3.75;;;;;;;;;;4483977;31;34699;-60
2023/04/23 09:22:01;;;;;;;8.77;5.85;;;;;;;22.63;26.65;99286.09;4483894;31;33649;-59
2023/04/23 09:24:29;;;;;;;6.93;4.05;;;;;;;23.07;26.36;99279.31;4488555;31;34186;-61
2023/04/23 09:26:57;;;;;;;8.75;4.87;;;;;;;23.56;25.80;99272.62;4484570;31;35924;-60
2023/04/23 09:29:25;;;;;;;7.25;4.62;;;;;;;23.12;26.07;99278.72;4482776;31;33612;-60
2023/04/23 09:31:55;;;;;;;7.30;4.55;;;;;;;22.68;25.44;99291.75;4484259;31;33905;-61
2023/04/23 09:34:23;;;;;;;8.95;5.68;;;;;;;23.83;24.27;99281.69;4486391;31;34146;-61
2023/04/23 09:36:52;;;;;;;13.80;4.82;;;;;;;23.73;24.30;99278.56;4489064;31;33814;-61
2023/04/23 09:39:23;;;;;;;6.87;3.62;;;;;;;23.65;24.44;99281.47;4495197;31;33223;-60
2023/04/23 09:41:52;;;;;;;6.53;4.47;;;;;;;23.38;24.24;99280.62;4487251;31;34152;-60
2023/04/23 09:44:25;;;;;;;8.68;5.43;;;;;;;23.30;24.26;99278.91;4496602;31;33329;-60
2023/04/23 09:46:53;;;;;;;7.50;3.95;;;;;;;24.02;24.36;99276.44;4493362;31;34497;-61
2023/04/23 09:49:21;;;;;;;5.50;3.50;;;;;;;24.03;24.07;99275.38;4484675;32;33983;-61
2023/04/23 09:51:48;;;;;;;6.93;4.93;;;;;;;23.99;24.11;99271.38;4483025;31;33910;-61
2023/04/23 09:54:21;;;;;;;6.37;3.85;;;;;;;23.38;24.59;99267.81;4492687;31;34001;-61
2023/04/23 09:56:52;;;;;;;6.78;3.60;;;;;;;24.04;23.33;99264.19;4494294;31;33694;-61
2023/04/23 09:59:24;;;;;;;6.82;3.50;;;;;;;23.39;24.33;99266.75;4491597;31;35131;-59
2023/04/23 10:02:12;;;;;;;7.65;3.85;;;;;;;24.50;22.77;99262.44;4490722;31;31489;-60
2023/04/23 10:04:40;;;;;;;7.82;4.93;;;;;;;24.25;23.26;99257.66;4498103;31;34849;-60
2023/04/23 10:07:12;;;;;;;7.43;3.75;;;;;;;24.87;21.94;99253.37;4493584;31;35718;-60
2023/04/23 10:09:43;;;;;;;6.40;3.62;;;;;;;25.35;22.35;99252.06;4491339;31;33992;-60
2023/04/23 10:12:12;;;;;;;5.12;3.22;;;;;;;24.89;21.99;99253.19;4484224;31;33727;-60
2023/04/23 10:15:00;;;;;;;10.57;4.10;;;;;;;25.10;22.28;99246.50;4492135;31;34496;-60
2023/04/23 10:17:27;;;;;;;7.10;4.53;;;;;;;24.94;21.57;99247.03;4488447;31;32482;-60
2023/04/23 10:19:57;;;;;;;5.57;3.53;;;;;;;24.74;21.88;99248.00;4482105;31;34936;-61
2023/04/23 10:22:26;;;;;;;8.27;4.30;;;;;;;25.41;22.09;99225.66;4486345;31;33860;-61
2023/04/23 10:24:57;;;;;;;6.55;3.03;;;;;;;25.67;21.28;99227.34;4485910;31;34253;-61
2023/04/23 10:27:30;;;;;;;5.25;3.33;;;;;;;24.11;20.79;99237.72;4493413;31;33611;-61
2023/04/23 10:30:18;;;;;;;6.55;3.75;;;;;;;24.61;21.40;99231.66;4489122;31;33834;-60
2023/04/23 10:32:47;;;;;;;5.37;2.95;;;;;;;24.53;20.28;99230.00;4483482;31;34807;-60
2023/04/23 10:35:15;;;;;;;7.40;3.70;;;;;;;25.35;19.62;99237.53;4488485;31;32108;-60
2023/04/23 10:37:44;;;;;;;7.68;4.05;;;;;;;25.27;18.43;99230.44;4491881;31;35007;-61
2023/04/23 10:40:13;;;;;;;5.68;3.20;;;;;;;25.14;18.57;99227.78;4488429;31;34891;-60
2023/04/23 10:42:42;;;;;;;5.20;3.20;;;;;;;25.28;18.61;99215.66;4493368;31;33889;-61
2023/04/23 10:45:15;;;;;;;7.30;3.05;;;;;;;25.25;18.79;99214.19;4486994;31;31996;-61
2023/04/23 10:47:55;;;;;;;8.93;4.12;;;;;;;25.36;19.30;99212.66;4498161;31;34834;-60
2023/04/23 10:50:25;;;;;;;4.95;3.22;;;;;;;24.75;20.01;99219.59;4496676;31;35020;-61
2023/04/23 10:52:55;;;;;;;6.93;3.67;;;;;;;25.17;20.39;99208.16;4498561;31;35018;-61
2023/04/23 10:55:26;;;;;;;7.05;3.33;;;;;;;25.87;20.18;99207.97;4496141;31;35765;-60
2023/04/23 10:58:02;;;;;;;7.32;3.72;;;;;;;25.06;20.25;99204.22;4495944;31;35009;-60
2023/04/23 11:00:46;;;;;;;7.05;2.45;;;;;;;25.33;18.27;99213.94;4489793;31;34964;-61
2023/04/23 11:03:29;;;;;;;4.47;2.75;;;;;;;24.57;18.45;99227.69;4492587;31;33738;-60
2023/04/23 11:06:00;;;;;;;4.25;2.72;;;;;;;25.18;17.69;99215.31;4491074;31;33761;-61
2023/04/23 11:08:32;;;;;;;6.05;3.10;;;;;;;25.11;17.73;99207.13;4496095;31;35246;-60
2023/04/23 11:11:00;;;;;;;6.12;2.70;;;;;;;24.30;17.54;99216.84;4499259;31;33982;-61
2023/04/23 11:13:29;;;;;;;5.37;2.97;;;;;;;24.73;16.95;99202.53;4494077;31;32372;-60
2023/04/23 11:16:13;;;;;;;4.25;2.47;;;;;;;25.07;17.64;99208.63;4491341;31;32430;-61
2023/04/23 11:19:03;;;;;;;5.23;3.50;;;;;;;24.93;17.44;99212.53;4493437;31;32612;-60
2023/04/23 11:21:53;;;;;;;4.90;2.87;;;;;;;24.42;16.71;99208.78;4486950;31;34995;-60
2023/04/23 11:24:22;;;;;;;6.25;3.03;;;;;;;24.79;17.82;99212.59;4491969;31;34790;-60
2023/04/23 11:26:52;;;;;;;7.05;2.83;;;;;;;25.37;18.22;99203.38;4497427;31;33730;-60
2023/04/23 11:29:22;;;;;;;5.72;2.83;;;;;;;25.25;17.79;99202.41;4491653;31;33669;-60
2023/04/23 11:31:51;;;;;;;5.57;2.42;;;;;;;24.67;18.12;99197.09;4488500;31;33209;-61
2023/04/23 11:34:29;;;;;;;5.45;3.22;;;;;;;24.29;18.50;99206.94;4487742;31;33900;-61
2023/04/23 11:36:58;;;;;;;4.70;2.40;;;;;;;25.09;17.83;99199.13;4484682;31;33089;-60
2023/04/23 11:39:26;;;;;;;5.47;3.12;;;;;;;25.50;17.32;99192.28;4492235;31;33723;-61
2023/04/23 11:41:53;;;;;;;5.12;3.33;;;;;;;23.65;18.61;99196.78;4482187;31;33393;-59